createdAt,value
2023-05-14T00:01:08.186Z,100.00
2023-05-14T00:08:26.420Z,100.00
2023-05-14T00:15:46.212Z,100.00
2023-05-14T00:23:04.400Z,100.00
2023-05-14T00:30:22.775Z,100.00
2023-05-14T00:37:43.461Z,100.00
2023-05-14T00:45:01.877Z,100.00
2023-05-14T00:52:20.132Z,100.00
2023-05-14T00:59:42.690Z,100.00
2023-05-14T01:07:10.168Z,100.00
2023-05-14T01:14:34.337Z,100.00
2023-05-14T01:21:54.019Z,100.00
2023-05-14T01:29:15.606Z,100.00
2023-05-14T01:36:34.187Z,96.88
2023-05-14T01:43:54.084Z,95.71
2023-05-14T01:51:14.754Z,94.73
2023-05-14T01:58:33.339Z,93.98
2023-05-14T02:05:53.424Z,95.19
2023-05-14T02:13:11.663Z,94.66
2023-05-14T02:20:29.967Z,95.28
2023-05-14T02:27:49.648Z,96.77
2023-05-14T02:35:09.167Z,98.78
2023-05-14T02:42:27.317Z,100.00
2023-05-14T02:49:46.868Z,100.00
2023-05-14T02:57:05.323Z,100.00
2023-05-14T03:04:23.732Z,100.00
2023-05-14T03:11:43.545Z,100.00
2023-05-14T03:19:01.737Z,100.00
2023-05-14T03:26:21.722Z,100.00
2023-05-14T03:33:41.411Z,100.00
2023-05-14T03:40:59.614Z,100.00
2023-05-14T03:48:18.321Z,100.00
2023-05-14T03:55:38.173Z,100.00
2023-05-14T04:02:56.474Z,100.00
2023-05-14T04:10:15.587Z,100.00
2023-05-14T04:17:35.558Z,100.00
2023-05-14T04:24:53.735Z,100.00
2023-05-14T04:32:12.490Z,100.00
2023-05-14T04:39:32.205Z,100.00
2023-05-14T04:46:50.503Z,93.65
2023-05-14T04:54:08.858Z,81.71
2023-05-14T05:01:28.577Z,68.31
2023-05-14T05:08:46.760Z,63.68
2023-05-14T05:16:05.527Z,60.43
2023-05-14T05:23:25.265Z,62.66
2023-05-14T05:30:45.225Z,63.53
2023-05-14T05:38:04.061Z,68.77
2023-05-14T05:45:24.090Z,65.65
2023-05-14T05:52:42.436Z,64.54
2023-05-14T06:00:01.155Z,60.33
2023-05-14T06:07:21.345Z,61.63
2023-05-14T06:14:39.602Z,65.34
2023-05-14T06:21:57.828Z,62.36
2023-05-14T06:29:17.487Z,61.18
2023-05-14T06:36:35.780Z,59.91
2023-05-14T06:43:54.035Z,58.15
2023-05-14T06:51:14.496Z,54.05
2023-05-14T06:58:32.750Z,53.21
2023-05-14T07:05:52.022Z,48.04
2023-05-14T07:13:11.589Z,45.26
2023-05-14T07:20:29.735Z,46.52
2023-05-14T07:27:47.864Z,44.18
2023-05-14T07:35:08.583Z,46.28
2023-05-14T07:42:35.815Z,44.70
2023-05-14T07:49:56.540Z,44.21
2023-05-14T07:57:16.631Z,42.63
2023-05-14T08:04:36.151Z,43.08
2023-05-14T08:11:54.424Z,41.48
2023-05-14T08:19:14.586Z,42.35
2023-05-14T08:26:32.888Z,40.80
2023-05-14T08:33:51.053Z,41.39
2023-05-14T08:41:11.696Z,41.22
2023-05-14T08:48:34.313Z,39.97
2023-05-14T08:55:52.541Z,41.18
2023-05-14T09:03:12.797Z,42.58
2023-05-14T09:10:32.029Z,44.77
2023-05-14T09:17:50.499Z,44.45
2023-05-14T09:25:12.447Z,47.13
2023-05-14T09:32:36.935Z,46.68
2023-05-14T09:39:55.040Z,47.59
2023-05-14T09:47:16.327Z,47.07
2023-05-14T09:54:34.746Z,44.14
2023-05-14T10:01:54.381Z,45.86
2023-05-14T10:09:14.875Z,46.83
2023-05-14T10:16:35.659Z,42.44
2023-05-14T10:23:54.081Z,40.84
2023-05-14T10:31:14.185Z,39.97
2023-05-14T10:38:34.845Z,41.06
2023-05-14T10:45:53.559Z,43.28
2023-05-14T10:53:14.451Z,40.93
2023-05-14T11:00:34.709Z,37.44
2023-05-14T11:07:53.993Z,39.04
2023-05-14T11:15:15.141Z,39.58
2023-05-14T11:22:33.293Z,39.15
2023-05-14T11:29:51.756Z,37.09
2023-05-14T11:37:12.727Z,35.57
2023-05-14T11:44:30.956Z,36.58
2023-05-14T11:51:49.089Z,37.83
2023-05-14T11:59:08.701Z,38.00
2023-05-14T12:06:32.002Z,35.34
2023-05-14T12:13:50.081Z,36.77
2023-05-14T12:21:10.075Z,38.09
2023-05-14T12:28:28.876Z,38.95
2023-05-14T12:35:47.091Z,39.47
2023-05-14T12:43:07.871Z,41.85
2023-05-14T12:50:26.382Z,42.12
2023-05-14T12:57:44.667Z,40.11
2023-05-14T13:05:04.465Z,41.98
2023-05-14T13:12:22.706Z,42.26
2023-05-14T13:19:40.894Z,41.90
2023-05-14T13:27:00.330Z,40.38
2023-05-14T13:34:18.583Z,39.48
2023-05-14T13:41:38.423Z,38.82
2023-05-14T13:48:57.952Z,38.88
2023-05-14T13:56:16.075Z,39.68
2023-05-14T14:03:34.221Z,39.35
2023-05-14T14:10:55.422Z,41.69
2023-05-14T14:18:13.701Z,42.87
2023-05-14T14:25:31.878Z,43.65
2023-05-14T14:32:51.638Z,43.64
2023-05-14T14:40:12.131Z,41.95
2023-05-14T14:47:30.706Z,43.10
2023-05-14T14:54:50.399Z,42.03
2023-05-14T15:02:10.391Z,43.13
2023-05-14T15:09:28.747Z,42.06
2023-05-14T15:16:50.823Z,41.96
2023-05-14T15:24:12.821Z,41.92
2023-05-14T15:31:31.245Z,42.25
2023-05-14T15:38:51.354Z,42.88
2023-05-14T15:46:09.560Z,43.77
2023-05-14T15:53:27.775Z,44.61
2023-05-14T16:00:47.615Z,45.24
2023-05-14T16:08:06.419Z,45.63
2023-05-14T16:15:25.103Z,46.63
2023-05-14T16:22:44.941Z,46.58
2023-05-14T16:30:03.247Z,46.40
2023-05-14T16:37:21.901Z,48.41
2023-05-14T16:44:41.521Z,48.42
2023-05-14T16:51:59.669Z,50.09
2023-05-14T16:59:18.313Z,47.68
2023-05-14T17:06:38.074Z,50.37
2023-05-14T17:13:56.248Z,49.51
2023-05-14T17:21:14.429Z,48.98
2023-05-14T17:28:34.077Z,50.44
2023-05-14T17:35:52.693Z,51.79
2023-05-14T17:43:11.243Z,54.43
2023-05-14T17:50:31.018Z,54.31
2023-05-14T17:57:49.238Z,56.11
2023-05-14T18:05:08.204Z,58.80
2023-05-14T18:12:28.023Z,59.38
2023-05-14T18:19:46.184Z,60.35
2023-05-14T18:27:04.484Z,61.73
2023-05-14T18:34:24.127Z,63.88
2023-05-14T18:41:42.504Z,64.52
2023-05-14T18:49:00.750Z,65.10
2023-05-14T18:56:21.494Z,65.98
2023-05-14T19:03:41.831Z,68.76
2023-05-14T19:11:00.335Z,69.86
2023-05-14T19:18:20.225Z,76.44
2023-05-14T19:25:39.113Z,75.43
2023-05-14T19:32:57.574Z,79.80
2023-05-14T19:40:17.499Z,81.06
2023-05-14T19:47:36.120Z,76.56
2023-05-14T19:54:54.588Z,88.42
2023-05-14T20:02:18.705Z,94.43
2023-05-14T20:09:37.210Z,98.49
2023-05-14T20:16:58.128Z,100.00
2023-05-14T20:24:18.048Z,98.62
2023-05-14T20:31:36.294Z,100.00
2023-05-14T20:38:54.546Z,100.00
2023-05-14T20:46:14.289Z,100.00
2023-05-14T20:53:32.613Z,100.00
2023-05-14T21:00:51.330Z,100.00
2023-05-14T21:08:11.337Z,100.00
2023-05-14T21:15:30.797Z,100.00
2023-05-14T21:22:49.014Z,100.00
2023-05-14T21:30:10.428Z,100.00
2023-05-14T21:37:29.098Z,100.00
2023-05-14T21:44:47.572Z,100.00
2023-05-14T21:52:07.764Z,100.00
2023-05-14T21:59:26.045Z,100.00
2023-05-14T22:06:45.778Z,100.00
2023-05-14T22:14:05.507Z,100.00
2023-05-14T22:21:23.980Z,100.00
2023-05-14T22:28:43.252Z,100.00
2023-05-14T22:36:02.987Z,100.00
2023-05-14T22:43:22.119Z,100.00
2023-05-14T22:50:40.469Z,100.00
2023-05-14T22:58:00.374Z,100.00
2023-05-14T23:05:18.960Z,100.00
2023-05-14T23:12:37.501Z,100.00
2023-05-14T23:19:57.559Z,100.00
2023-05-14T23:27:15.922Z,100.00
2023-05-14T23:34:34.912Z,100.00
2023-05-14T23:41:54.829Z,100.00
2023-05-14T23:49:13.805Z,100.00
2023-05-14T23:56:32.288Z,100.00
